sensor_id;sensor_type;location;lat;lon;timestamp;temperature;humidity
39931;DHT22;26635;-35.248;149.138;2022-08-16T00:01:31;10.70;88.50
39931;DHT22;26635;-35.248;149.138;2022-08-16T00:04:07;10.80;86.20
39931;DHT22;26635;-35.248;149.138;2022-08-16T00:06:38;10.80;85.70
39931;DHT22;26635;-35.248;149.138;2022-08-16T00:09:10;10.90;85.40
39931;DHT22;26635;-35.248;149.138;2022-08-16T00:11:43;11.00;84.10
39931;DHT22;26635;-35.248;149.138;2022-08-16T00:14:22;11.10;84.70
39931;DHT22;26635;-35.248;149.138;2022-08-16T00:16:58;11.20;82.40
39931;DHT22;26635;-35.248;149.138;2022-08-16T00:19:46;11.30;78.30
39931;DHT22;26635;-35.248;149.138;2022-08-16T00:22:24;11.20;79.30
39931;DHT22;26635;-35.248;149.138;2022-08-16T00:24:54;11.20;79.80
39931;DHT22;26635;-35.248;149.138;2022-08-16T00:27:25;11.20;80.50
39931;DHT22;26635;-35.248;149.138;2022-08-16T00:29:57;11.30;78.90
39931;DHT22;26635;-35.248;149.138;2022-08-16T00:32:51;11.40;77.50
39931;DHT22;26635;-35.248;149.138;2022-08-16T00:35:28;11.50;78.50
39931;DHT22;26635;-35.248;149.138;2022-08-16T00:38:04;11.70;78.00
39931;DHT22;26635;-35.248;149.138;2022-08-16T00:40:55;11.90;77.70
39931;DHT22;26635;-35.248;149.138;2022-08-16T00:43:33;12.00;75.50
39931;DHT22;26635;-35.248;149.138;2022-08-16T00:46:29;12.10;77.20
39931;DHT22;26635;-35.248;149.138;2022-08-16T00:49:07;12.30;78.30
39931;DHT22;26635;-35.248;149.138;2022-08-16T00:51:53;12.40;75.20
39931;DHT22;26635;-35.248;149.138;2022-08-16T00:54:34;12.40;75.00
39931;DHT22;26635;-35.248;149.138;2022-08-16T00:57:12;12.50;73.90
39931;DHT22;26635;-35.248;149.138;2022-08-16T00:59:43;12.70;75.00
39931;DHT22;26635;-35.248;149.138;2022-08-16T01:02:26;12.80;74.70
39931;DHT22;26635;-35.248;149.138;2022-08-16T01:05:03;12.80;74.10
39931;DHT22;26635;-35.248;149.138;2022-08-16T01:07:51;12.80;73.90
39931;DHT22;26635;-35.248;149.138;2022-08-16T01:10:32;12.90;72.50
39931;DHT22;26635;-35.248;149.138;2022-08-16T01:13:14;12.80;70.30
39931;DHT22;26635;-35.248;149.138;2022-08-16T01:15:58;12.80;72.40
39931;DHT22;26635;-35.248;149.138;2022-08-16T01:19:00;12.80;71.70
39931;DHT22;26635;-35.248;149.138;2022-08-16T01:21:49;12.90;72.00
39931;DHT22;26635;-35.248;149.138;2022-08-16T01:24:49;12.90;72.50
39931;DHT22;26635;-35.248;149.138;2022-08-16T01:27:47;12.80;70.70
39931;DHT22;26635;-35.248;149.138;2022-08-16T01:30:37;12.70;72.00
39931;DHT22;26635;-35.248;149.138;2022-08-16T01:33:20;12.80;72.70
39931;DHT22;26635;-35.248;149.138;2022-08-16T01:36:06;12.90;75.50
39931;DHT22;26635;-35.248;149.138;2022-08-16T01:38:47;13.10;72.00
39931;DHT22;26635;-35.248;149.138;2022-08-16T01:41:29;13.20;74.30
39931;DHT22;26635;-35.248;149.138;2022-08-16T01:44:31;13.40;73.10
39931;DHT22;26635;-35.248;149.138;2022-08-16T01:47:06;13.50;73.70
39931;DHT22;26635;-35.248;149.138;2022-08-16T01:49:42;13.60;72.30
39931;DHT22;26635;-35.248;149.138;2022-08-16T01:52:35;13.70;73.80
39931;DHT22;26635;-35.248;149.138;2022-08-16T01:55:23;13.80;73.50
39931;DHT22;26635;-35.248;149.138;2022-08-16T01:58:02;13.70;71.20
39931;DHT22;26635;-35.248;149.138;2022-08-16T02:00:42;13.60;72.10
39931;DHT22;26635;-35.248;149.138;2022-08-16T02:03:16;13.50;72.50
39931;DHT22;26635;-35.248;149.138;2022-08-16T02:06:18;13.50;73.20
39931;DHT22;26635;-35.248;149.138;2022-08-16T02:09:03;13.40;72.90
39931;DHT22;26635;-35.248;149.138;2022-08-16T02:11:42;13.50;74.40
39931;DHT22;26635;-35.248;149.138;2022-08-16T02:14:22;13.50;72.20
39931;DHT22;26635;-35.248;149.138;2022-08-16T02:16:58;13.50;73.20
39931;DHT22;26635;-35.248;149.138;2022-08-16T02:19:33;13.70;73.50
39931;DHT22;26635;-35.248;149.138;2022-08-16T02:22:24;13.60;70.90
39931;DHT22;26635;-35.248;149.138;2022-08-16T02:25:11;13.60;71.00
39931;DHT22;26635;-35.248;149.138;2022-08-16T02:27:44;13.60;73.40
39931;DHT22;26635;-35.248;149.138;2022-08-16T02:30:20;13.70;73.40
39931;DHT22;26635;-35.248;149.138;2022-08-16T02:33:11;13.80;74.00
39931;DHT22;26635;-35.248;149.138;2022-08-16T02:35:42;13.90;73.20
39931;DHT22;26635;-35.248;149.138;2022-08-16T02:38:27;14.00;73.00
39931;DHT22;26635;-35.248;149.138;2022-08-16T02:41:01;14.00;72.20
39931;DHT22;26635;-35.248;149.138;2022-08-16T02:43:36;14.10;72.60
39931;DHT22;26635;-35.248;149.138;2022-08-16T02:46:12;14.10;72.90
39931;DHT22;26635;-35.248;149.138;2022-08-16T02:48:43;14.10;72.00
39931;DHT22;26635;-35.248;149.138;2022-08-16T02:51:16;14.10;72.20
39931;DHT22;26635;-35.248;149.138;2022-08-16T02:53:50;14.10;72.30
39931;DHT22;26635;-35.248;149.138;2022-08-16T02:56:23;14.20;73.60
39931;DHT22;26635;-35.248;149.138;2022-08-16T02:58:59;14.20;73.00
39931;DHT22;26635;-35.248;149.138;2022-08-16T03:01:38;14.20;73.10
39931;DHT22;26635;-35.248;149.138;2022-08-16T03:04:10;14.10;73.30
39931;DHT22;26635;-35.248;149.138;2022-08-16T03:06:56;14.10;74.10
39931;DHT22;26635;-35.248;149.138;2022-08-16T03:09:26;14.10;72.40
39931;DHT22;26635;-35.248;149.138;2022-08-16T03:11:59;14.10;74.40
39931;DHT22;26635;-35.248;149.138;2022-08-16T03:14:31;14.00;73.10
39931;DHT22;26635;-35.248;149.138;2022-08-16T03:17:01;14.00;74.80
39931;DHT22;26635;-35.248;149.138;2022-08-16T03:19:35;14.00;74.70
39931;DHT22;26635;-35.248;149.138;2022-08-16T03:22:25;14.10;74.80
39931;DHT22;26635;-35.248;149.138;2022-08-16T03:24:58;13.90;74.70
39931;DHT22;26635;-35.248;149.138;2022-08-16T03:27:36;13.80;74.20
39931;DHT22;26635;-35.248;149.138;2022-08-16T03:30:15;13.70;75.50
39931;DHT22;26635;-35.248;149.138;2022-08-16T03:32:48;13.80;75.70
39931;DHT22;26635;-35.248;149.138;2022-08-16T03:35:28;13.90;75.60
39931;DHT22;26635;-35.248;149.138;2022-08-16T03:38:03;13.90;74.70
39931;DHT22;26635;-35.248;149.138;2022-08-16T03:40:56;14.00;74.10
39931;DHT22;26635;-35.248;149.138;2022-08-16T03:43:29;14.00;74.30
39931;DHT22;26635;-35.248;149.138;2022-08-16T03:46:21;14.10;74.80
39931;DHT22;26635;-35.248;149.138;2022-08-16T03:49:12;14.10;74.50
39931;DHT22;26635;-35.248;149.138;2022-08-16T03:51:46;14.10;74.50
39931;DHT22;26635;-35.248;149.138;2022-08-16T03:54:19;14.00;75.10
39931;DHT22;26635;-35.248;149.138;2022-08-16T03:56:50;13.90;77.30
39931;DHT22;26635;-35.248;149.138;2022-08-16T03:59:25;13.90;80.10
39931;DHT22;26635;-35.248;149.138;2022-08-16T04:02:01;13.90;81.20
39931;DHT22;26635;-35.248;149.138;2022-08-16T04:04:49;13.80;79.70
39931;DHT22;26635;-35.248;149.138;2022-08-16T04:07:20;13.70;80.50
39931;DHT22;26635;-35.248;149.138;2022-08-16T04:09:51;13.80;79.50
39931;DHT22;26635;-35.248;149.138;2022-08-16T04:12:23;13.80;77.60
39931;DHT22;26635;-35.248;149.138;2022-08-16T04:15:16;13.80;77.80
39931;DHT22;26635;-35.248;149.138;2022-08-16T04:17:49;13.80;77.90
39931;DHT22;26635;-35.248;149.138;2022-08-16T04:20:20;13.90;77.40
39931;DHT22;26635;-35.248;149.138;2022-08-16T04:23:04;14.00;76.80
39931;DHT22;26635;-35.248;149.138;2022-08-16T04:25:36;14.10;76.30
39931;DHT22;26635;-35.248;149.138;2022-08-16T04:28:07;14.20;75.70
39931;DHT22;26635;-35.248;149.138;2022-08-16T04:30:58;14.10;75.90
39931;DHT22;26635;-35.248;149.138;2022-08-16T04:33:34;14.00;77.10
39931;DHT22;26635;-35.248;149.138;2022-08-16T04:36:20;13.90;77.70
39931;DHT22;26635;-35.248;149.138;2022-08-16T04:38:52;13.60;77.40
39931;DHT22;26635;-35.248;149.138;2022-08-16T04:41:24;13.60;78.30
39931;DHT22;26635;-35.248;149.138;2022-08-16T04:44:04;13.50;77.40
39931;DHT22;26635;-35.248;149.138;2022-08-16T04:46:54;13.40;77.80
39931;DHT22;26635;-35.248;149.138;2022-08-16T04:49:30;13.40;77.40
39931;DHT22;26635;-35.248;149.138;2022-08-16T04:52:12;13.50;77.90
39931;DHT22;26635;-35.248;149.138;2022-08-16T04:55:08;13.40;77.70
39931;DHT22;26635;-35.248;149.138;2022-08-16T04:57:40;13.40;78.20
39931;DHT22;26635;-35.248;149.138;2022-08-16T05:00:13;13.40;78.00
39931;DHT22;26635;-35.248;149.138;2022-08-16T05:03:03;13.40;77.90
39931;DHT22;26635;-35.248;149.138;2022-08-16T05:05:38;13.30;78.40
39931;DHT22;26635;-35.248;149.138;2022-08-16T05:08:29;13.30;78.20
39931;DHT22;26635;-35.248;149.138;2022-08-16T05:11:04;13.20;78.30
39931;DHT22;26635;-35.248;149.138;2022-08-16T05:13:37;13.20;78.50
39931;DHT22;26635;-35.248;149.138;2022-08-16T05:16:16;13.10;78.30
39931;DHT22;26635;-35.248;149.138;2022-08-16T05:18:53;13.10;78.80
39931;DHT22;26635;-35.248;149.138;2022-08-16T05:21:26;13.10;78.40
39931;DHT22;26635;-35.248;149.138;2022-08-16T05:24:07;13.00;78.70
39931;DHT22;26635;-35.248;149.138;2022-08-16T05:26:37;13.00;78.40
39931;DHT22;26635;-35.248;149.138;2022-08-16T05:29:18;13.00;79.70
39931;DHT22;26635;-35.248;149.138;2022-08-16T05:31:51;13.00;79.30
39931;DHT22;26635;-35.248;149.138;2022-08-16T05:34:23;13.10;79.80
39931;DHT22;26635;-35.248;149.138;2022-08-16T05:36:54;13.20;79.40
39931;DHT22;26635;-35.248;149.138;2022-08-16T05:39:27;13.30;78.70
39931;DHT22;26635;-35.248;149.138;2022-08-16T05:42:00;13.40;79.20
39931;DHT22;26635;-35.248;149.138;2022-08-16T05:44:30;13.50;78.90
39931;DHT22;26635;-35.248;149.138;2022-08-16T05:47:01;13.50;78.50
39931;DHT22;26635;-35.248;149.138;2022-08-16T05:49:34;13.60;78.80
39931;DHT22;26635;-35.248;149.138;2022-08-16T05:52:08;13.50;79.50
39931;DHT22;26635;-35.248;149.138;2022-08-16T05:54:44;13.50;79.00
39931;DHT22;26635;-35.248;149.138;2022-08-16T05:57:28;13.40;79.30
39931;DHT22;26635;-35.248;149.138;2022-08-16T06:00:04;13.40;79.20
39931;DHT22;26635;-35.248;149.138;2022-08-16T06:02:37;13.30;79.00
39931;DHT22;26635;-35.248;149.138;2022-08-16T06:05:09;13.20;79.60
39931;DHT22;26635;-35.248;149.138;2022-08-16T06:07:42;13.20;79.80
39931;DHT22;26635;-35.248;149.138;2022-08-16T06:10:25;13.10;80.70
39931;DHT22;26635;-35.248;149.138;2022-08-16T06:13:00;13.00;83.30
39931;DHT22;26635;-35.248;149.138;2022-08-16T06:15:30;12.90;83.60
39931;DHT22;26635;-35.248;149.138;2022-08-16T06:18:01;12.70;85.90
39931;DHT22;26635;-35.248;149.138;2022-08-16T06:20:36;12.50;87.20
39931;DHT22;26635;-35.248;149.138;2022-08-16T06:23:19;12.20;89.60
39931;DHT22;26635;-35.248;149.138;2022-08-16T06:25:52;11.90;90.20
39931;DHT22;26635;-35.248;149.138;2022-08-16T06:28:24;11.60;91.20
39931;DHT22;26635;-35.248;149.138;2022-08-16T06:31:05;11.20;91.80
39931;DHT22;26635;-35.248;149.138;2022-08-16T06:33:39;11.00;92.70
39931;DHT22;26635;-35.248;149.138;2022-08-16T06:36:21;10.90;93.30
39931;DHT22;26635;-35.248;149.138;2022-08-16T06:38:53;10.70;93.40
39931;DHT22;26635;-35.248;149.138;2022-08-16T06:41:25;10.60;93.70
39931;DHT22;26635;-35.248;149.138;2022-08-16T06:44:06;10.50;94.30
39931;DHT22;26635;-35.248;149.138;2022-08-16T06:46:49;10.40;93.90
39931;DHT22;26635;-35.248;149.138;2022-08-16T06:49:24;10.30;94.40
39931;DHT22;26635;-35.248;149.138;2022-08-16T06:51:54;10.30;94.80
39931;DHT22;26635;-35.248;149.138;2022-08-16T06:54:32;10.20;95.00
39931;DHT22;26635;-35.248;149.138;2022-08-16T06:57:25;10.20;95.20
39931;DHT22;26635;-35.248;149.138;2022-08-16T06:59:56;10.20;95.60
39931;DHT22;26635;-35.248;149.138;2022-08-16T07:02:28;10.20;96.10
39931;DHT22;26635;-35.248;149.138;2022-08-16T07:05:01;10.20;95.40
39931;DHT22;26635;-35.248;149.138;2022-08-16T07:07:45;10.20;95.20
39931;DHT22;26635;-35.248;149.138;2022-08-16T07:10:18;10.20;95.30
39931;DHT22;26635;-35.248;149.138;2022-08-16T07:12:53;10.20;95.20
39931;DHT22;26635;-35.248;149.138;2022-08-16T07:15:31;10.20;95.40
39931;DHT22;26635;-35.248;149.138;2022-08-16T07:18:02;10.20;95.50
39931;DHT22;26635;-35.248;149.138;2022-08-16T07:20:34;10.20;95.80
39931;DHT22;26635;-35.248;149.138;2022-08-16T07:23:15;10.20;96.10
39931;DHT22;26635;-35.248;149.138;2022-08-16T07:26:05;10.20;96.10
39931;DHT22;26635;-35.248;149.138;2022-08-16T07:28:37;10.20;96.40
39931;DHT22;26635;-35.248;149.138;2022-08-16T07:31:07;10.20;96.40
39931;DHT22;26635;-35.248;149.138;2022-08-16T07:33:41;10.20;96.40
39931;DHT22;26635;-35.248;149.138;2022-08-16T07:36:21;10.20;96.00
39931;DHT22;26635;-35.248;149.138;2022-08-16T07:38:52;10.10;95.90
39931;DHT22;26635;-35.248;149.138;2022-08-16T07:41:23;10.10;96.40
39931;DHT22;26635;-35.248;149.138;2022-08-16T07:43:55;10.00;96.60
39931;DHT22;26635;-35.248;149.138;2022-08-16T07:46:26;10.00;96.80
39931;DHT22;26635;-35.248;149.138;2022-08-16T07:49:07;10.00;96.60
39931;DHT22;26635;-35.248;149.138;2022-08-16T07:51:39;10.00;96.80
39931;DHT22;26635;-35.248;149.138;2022-08-16T07:54:10;10.00;96.80
39931;DHT22;26635;-35.248;149.138;2022-08-16T07:56:58;10.00;96.90
39931;DHT22;26635;-35.248;149.138;2022-08-16T07:59:29;10.00;96.80
39931;DHT22;26635;-35.248;149.138;2022-08-16T08:02:13;10.00;97.00
39931;DHT22;26635;-35.248;149.138;2022-08-16T08:04:48;9.90;97.10
39931;DHT22;26635;-35.248;149.138;2022-08-16T08:07:21;9.90;97.20
39931;DHT22;26635;-35.248;149.138;2022-08-16T08:09:59;9.90;97.20
39931;DHT22;26635;-35.248;149.138;2022-08-16T08:12:31;9.90;97.20
39931;DHT22;26635;-35.248;149.138;2022-08-16T08:15:08;9.90;97.00
39931;DHT22;26635;-35.248;149.138;2022-08-16T08:17:58;9.90;97.10
39931;DHT22;26635;-35.248;149.138;2022-08-16T08:20:51;9.90;97.20
39931;DHT22;26635;-35.248;149.138;2022-08-16T08:23:26;9.90;97.10
39931;DHT22;26635;-35.248;149.138;2022-08-16T08:25:56;9.90;97.20
39931;DHT22;26635;-35.248;149.138;2022-08-16T08:28:35;9.80;97.20
39931;DHT22;26635;-35.248;149.138;2022-08-16T08:31:06;9.80;97.20
39931;DHT22;26635;-35.248;149.138;2022-08-16T08:33:43;9.80;97.20
39931;DHT22;26635;-35.248;149.138;2022-08-16T08:36:28;9.80;97.20
39931;DHT22;26635;-35.248;149.138;2022-08-16T08:39:00;9.80;97.30
39931;DHT22;26635;-35.248;149.138;2022-08-16T08:41:40;9.80;97.20
39931;DHT22;26635;-35.248;149.138;2022-08-16T08:44:16;9.80;97.10
39931;DHT22;26635;-35.248;149.138;2022-08-16T08:47:00;9.80;97.20
39931;DHT22;26635;-35.248;149.138;2022-08-16T08:49:38;9.80;97.40
39931;DHT22;26635;-35.248;149.138;2022-08-16T08:52:17;9.80;97.70
39931;DHT22;26635;-35.248;149.138;2022-08-16T08:55:07;9.70;97.60
39931;DHT22;26635;-35.248;149.138;2022-08-16T08:57:42;9.70;97.60
39931;DHT22;26635;-35.248;149.138;2022-08-16T09:00:23;9.70;97.50
39931;DHT22;26635;-35.248;149.138;2022-08-16T09:03:14;9.70;97.40
39931;DHT22;26635;-35.248;149.138;2022-08-16T09:06:39;9.70;97.20
39931;DHT22;26635;-35.248;149.138;2022-08-16T09:09:20;9.60;97.30
39931;DHT22;26635;-35.248;149.138;2022-08-16T09:11:51;9.60;97.40
39931;DHT22;26635;-35.248;149.138;2022-08-16T09:14:35;9.50;97.30
39931;DHT22;26635;-35.248;149.138;2022-08-16T09:17:17;9.60;97.30
39931;DHT22;26635;-35.248;149.138;2022-08-16T09:20:15;9.50;97.30
39931;DHT22;26635;-35.248;149.138;2022-08-16T09:22:51;9.50;97.60
39931;DHT22;26635;-35.248;149.138;2022-08-16T09:25:25;9.50;98.00
39931;DHT22;26635;-35.248;149.138;2022-08-16T09:28:03;9.50;97.60
39931;DHT22;26635;-35.248;149.138;2022-08-16T09:30:39;9.40;97.60
39931;DHT22;26635;-35.248;149.138;2022-08-16T09:33:15;9.40;97.70
39931;DHT22;26635;-35.248;149.138;2022-08-16T09:35:51;9.30;97.50
39931;DHT22;26635;-35.248;149.138;2022-08-16T09:38:28;9.30;97.20
39931;DHT22;26635;-35.248;149.138;2022-08-16T09:41:04;9.20;97.10
39931;DHT22;26635;-35.248;149.138;2022-08-16T09:43:42;9.20;97.20
39931;DHT22;26635;-35.248;149.138;2022-08-16T09:46:27;9.10;97.20
39931;DHT22;26635;-35.248;149.138;2022-08-16T09:49:16;9.00;97.10
39931;DHT22;26635;-35.248;149.138;2022-08-16T09:51:52;9.00;97.00
39931;DHT22;26635;-35.248;149.138;2022-08-16T09:54:40;8.90;97.10
39931;DHT22;26635;-35.248;149.138;2022-08-16T09:57:12;8.80;97.20
39931;DHT22;26635;-35.248;149.138;2022-08-16T09:59:46;8.70;97.50
39931;DHT22;26635;-35.248;149.138;2022-08-16T10:02:23;8.70;97.20
39931;DHT22;26635;-35.248;149.138;2022-08-16T10:04:56;8.60;97.30
39931;DHT22;26635;-35.248;149.138;2022-08-16T10:07:29;8.50;97.30
39931;DHT22;26635;-35.248;149.138;2022-08-16T10:10:14;8.50;97.20
39931;DHT22;26635;-35.248;149.138;2022-08-16T10:12:58;8.40;97.00
39931;DHT22;26635;-35.248;149.138;2022-08-16T10:15:46;8.40;96.80
39931;DHT22;26635;-35.248;149.138;2022-08-16T10:18:28;8.30;96.90
39931;DHT22;26635;-35.248;149.138;2022-08-16T10:21:25;8.30;97.10
39931;DHT22;26635;-35.248;149.138;2022-08-16T10:24:01;8.20;97.00
39931;DHT22;26635;-35.248;149.138;2022-08-16T10:26:32;8.20;97.10
39931;DHT22;26635;-35.248;149.138;2022-08-16T10:29:27;8.10;97.20
39931;DHT22;26635;-35.248;149.138;2022-08-16T10:32:17;8.00;97.20
39931;DHT22;26635;-35.248;149.138;2022-08-16T10:34:50;8.00;97.10
39931;DHT22;26635;-35.248;149.138;2022-08-16T10:37:22;7.90;97.00
39931;DHT22;26635;-35.248;149.138;2022-08-16T10:40:09;7.90;97.00
39931;DHT22;26635;-35.248;149.138;2022-08-16T10:43:00;7.90;96.80
39931;DHT22;26635;-35.248;149.138;2022-08-16T10:45:35;7.80;96.70
39931;DHT22;26635;-35.248;149.138;2022-08-16T10:48:27;7.80;96.70
39931;DHT22;26635;-35.248;149.138;2022-08-16T10:51:00;7.70;96.80
39931;DHT22;26635;-35.248;149.138;2022-08-16T10:53:37;7.70;97.00
39931;DHT22;26635;-35.248;149.138;2022-08-16T10:56:12;7.70;97.10
39931;DHT22;26635;-35.248;149.138;2022-08-16T10:59:08;7.60;97.00
39931;DHT22;26635;-35.248;149.138;2022-08-16T11:01:59;7.50;97.00
39931;DHT22;26635;-35.248;149.138;2022-08-16T11:04:50;7.40;97.40
39931;DHT22;26635;-35.248;149.138;2022-08-16T11:07:40;7.40;97.00
39931;DHT22;26635;-35.248;149.138;2022-08-16T11:10:43;7.30;97.20
39931;DHT22;26635;-35.248;149.138;2022-08-16T11:13:36;7.30;97.00
39931;DHT22;26635;-35.248;149.138;2022-08-16T11:16:26;7.20;96.90
39931;DHT22;26635;-35.248;149.138;2022-08-16T11:19:18;7.20;97.00
39931;DHT22;26635;-35.248;149.138;2022-08-16T11:21:51;7.10;97.10
39931;DHT22;26635;-35.248;149.138;2022-08-16T11:24:45;7.10;97.00
39931;DHT22;26635;-35.248;149.138;2022-08-16T11:27:35;7.10;97.10
39931;DHT22;26635;-35.248;149.138;2022-08-16T11:30:08;7.00;96.90
39931;DHT22;26635;-35.248;149.138;2022-08-16T11:32:49;7.00;96.90
39931;DHT22;26635;-35.248;149.138;2022-08-16T11:35:39;7.00;97.00
39931;DHT22;26635;-35.248;149.138;2022-08-16T11:38:19;6.90;97.20
39931;DHT22;26635;-35.248;149.138;2022-08-16T11:41:11;6.90;97.00
39931;DHT22;26635;-35.248;149.138;2022-08-16T11:43:44;6.90;97.10
39931;DHT22;26635;-35.248;149.138;2022-08-16T11:46:16;6.90;96.90
39931;DHT22;26635;-35.248;149.138;2022-08-16T11:49:07;6.80;97.00
39931;DHT22;26635;-35.248;149.138;2022-08-16T11:51:50;6.90;97.30
39931;DHT22;26635;-35.248;149.138;2022-08-16T11:54:20;6.90;97.40
39931;DHT22;26635;-35.248;149.138;2022-08-16T11:57:03;7.00;97.80
39931;DHT22;26635;-35.248;149.138;2022-08-16T11:59:38;7.00;98.10
39931;DHT22;26635;-35.248;149.138;2022-08-16T12:02:13;7.00;97.80
39931;DHT22;26635;-35.248;149.138;2022-08-16T12:04:59;7.10;97.90
39931;DHT22;26635;-35.248;149.138;2022-08-16T12:07:29;7.10;98.00
39931;DHT22;26635;-35.248;149.138;2022-08-16T12:10:10;7.10;97.70
39931;DHT22;26635;-35.248;149.138;2022-08-16T12:12:45;7.10;97.40
39931;DHT22;26635;-35.248;149.138;2022-08-16T12:15:24;7.10;97.80
39931;DHT22;26635;-35.248;149.138;2022-08-16T12:18:02;7.00;97.70
39931;DHT22;26635;-35.248;149.138;2022-08-16T12:20:36;7.00;97.50
39931;DHT22;26635;-35.248;149.138;2022-08-16T12:23:10;7.00;97.70
39931;DHT22;26635;-35.248;149.138;2022-08-16T12:25:40;7.00;97.50
39931;DHT22;26635;-35.248;149.138;2022-08-16T12:28:10;7.00;97.20
39931;DHT22;26635;-35.248;149.138;2022-08-16T12:30:43;6.90;97.00
39931;DHT22;26635;-35.248;149.138;2022-08-16T12:33:16;6.90;97.20
39931;DHT22;26635;-35.248;149.138;2022-08-16T12:35:52;6.80;97.30
39931;DHT22;26635;-35.248;149.138;2022-08-16T12:38:26;6.80;96.50
39931;DHT22;26635;-35.248;149.138;2022-08-16T12:41:15;6.70;96.90
39931;DHT22;26635;-35.248;149.138;2022-08-16T12:44:01;6.70;97.10
39931;DHT22;26635;-35.248;149.138;2022-08-16T12:46:33;6.60;97.30
39931;DHT22;26635;-35.248;149.138;2022-08-16T12:49:05;6.60;97.30
39931;DHT22;26635;-35.248;149.138;2022-08-16T12:51:44;6.60;97.20
39931;DHT22;26635;-35.248;149.138;2022-08-16T12:54:26;6.60;97.30
39931;DHT22;26635;-35.248;149.138;2022-08-16T12:56:58;6.60;96.90
39931;DHT22;26635;-35.248;149.138;2022-08-16T12:59:30;6.60;97.60
39931;DHT22;26635;-35.248;149.138;2022-08-16T13:02:06;6.60;97.60
39931;DHT22;26635;-35.248;149.138;2022-08-16T13:04:50;6.50;96.70
39931;DHT22;26635;-35.248;149.138;2022-08-16T13:07:20;6.40;97.30
39931;DHT22;26635;-35.248;149.138;2022-08-16T13:09:54;6.40;96.80
39931;DHT22;26635;-35.248;149.138;2022-08-16T13:12:50;6.30;96.60
39931;DHT22;26635;-35.248;149.138;2022-08-16T13:15:26;6.20;96.40
39931;DHT22;26635;-35.248;149.138;2022-08-16T13:18:16;6.20;96.50
39931;DHT22;26635;-35.248;149.138;2022-08-16T13:21:06;6.20;96.70
39931;DHT22;26635;-35.248;149.138;2022-08-16T13:23:39;6.10;97.30
39931;DHT22;26635;-35.248;149.138;2022-08-16T13:26:11;6.00;97.00
39931;DHT22;26635;-35.248;149.138;2022-08-16T13:28:44;6.00;96.70
39931;DHT22;26635;-35.248;149.138;2022-08-16T13:31:15;6.00;96.60
39931;DHT22;26635;-35.248;149.138;2022-08-16T13:33:45;5.90;96.70
39931;DHT22;26635;-35.248;149.138;2022-08-16T13:36:26;5.90;96.60
39931;DHT22;26635;-35.248;149.138;2022-08-16T13:39:16;5.90;97.60
39931;DHT22;26635;-35.248;149.138;2022-08-16T13:41:53;5.80;96.60
39931;DHT22;26635;-35.248;149.138;2022-08-16T13:44:46;5.80;97.10
39931;DHT22;26635;-35.248;149.138;2022-08-16T13:47:26;5.80;96.50
39931;DHT22;26635;-35.248;149.138;2022-08-16T13:50:04;5.70;96.40
39931;DHT22;26635;-35.248;149.138;2022-08-16T14:03:39;5.60;96.60
39931;DHT22;26635;-35.248;149.138;2022-08-16T23:23:56;5.50;97.50
39931;DHT22;26635;-35.248;149.138;2022-08-16T23:26:27;5.50;97.30
39931;DHT22;26635;-35.248;149.138;2022-08-16T23:29:16;5.70;97.60
39931;DHT22;26635;-35.248;149.138;2022-08-16T23:32:09;5.80;97.80
39931;DHT22;26635;-35.248;149.138;2022-08-16T23:34:39;6.00;97.60
39931;DHT22;26635;-35.248;149.138;2022-08-16T23:37:10;6.10;97.50
39931;DHT22;26635;-35.248;149.138;2022-08-16T23:39:40;6.20;97.10
39931;DHT22;26635;-35.248;149.138;2022-08-16T23:42:14;6.20;96.20
39931;DHT22;26635;-35.248;149.138;2022-08-16T23:45:05;6.10;95.90
39931;DHT22;26635;-35.248;149.138;2022-08-16T23:47:40;6.20;96.50
39931;DHT22;26635;-35.248;149.138;2022-08-16T23:50:12;6.30;96.70
39931;DHT22;26635;-35.248;149.138;2022-08-16T23:53:08;6.30;96.90
39931;DHT22;26635;-35.248;149.138;2022-08-16T23:55:42;6.40;96.60
39931;DHT22;26635;-35.248;149.138;2022-08-16T23:58:15;6.50;96.40
